createdAt,value
2023-03-06T00:00:34.485Z,16.44
2023-03-06T00:03:16.159Z,16.46
2023-03-06T00:05:44.024Z,16.42
2023-03-06T00:08:12.270Z,16.43
2023-03-06T00:10:40.383Z,16.43
2023-03-06T00:13:11.622Z,16.43
2023-03-06T00:15:38.939Z,16.43
2023-03-06T00:18:06.951Z,16.42
2023-03-06T00:20:35.499Z,16.41
2023-03-06T00:23:03.034Z,16.41
2023-03-06T00:25:30.387Z,16.40
2023-03-06T00:27:58.065Z,16.42
2023-03-06T00:30:25.683Z,16.41
2023-03-06T00:32:53.616Z,16.43
2023-03-06T00:35:20.975Z,16.47
2023-03-06T00:37:48.808Z,16.47
2023-03-06T00:40:20.362Z,16.45
2023-03-06T00:42:47.987Z,16.48
2023-03-06T00:45:15.653Z,16.48
2023-03-06T00:47:43.856Z,16.49
2023-03-06T00:50:11.599Z,16.51
2023-03-06T00:52:39.515Z,16.51
2023-03-06T00:55:10.205Z,16.50
2023-03-06T00:57:38.104Z,16.51
2023-03-06T01:00:07.941Z,16.51
2023-03-06T01:02:35.561Z,16.51
2023-03-06T01:05:03.068Z,16.51
2023-03-06T01:07:33.932Z,16.50
2023-03-06T01:10:01.127Z,16.50
2023-03-06T01:12:28.667Z,16.52
2023-03-06T01:14:55.924Z,16.52
2023-03-06T01:17:24.025Z,16.51
2023-03-06T01:19:51.211Z,16.51
2023-03-06T01:22:18.992Z,16.51
2023-03-06T01:24:46.243Z,16.52
2023-03-06T01:27:13.814Z,16.51
2023-03-06T01:29:41.096Z,16.51
2023-03-06T01:32:08.748Z,16.51
2023-03-06T01:34:36.062Z,16.51
2023-03-06T01:37:03.568Z,16.52
2023-03-06T01:39:31.589Z,16.50
2023-03-06T01:41:59.128Z,16.51
2023-03-06T01:44:26.539Z,16.49
2023-03-06T01:46:55.051Z,16.49
2023-03-06T01:49:30.296Z,16.49
2023-03-06T01:52:24.102Z,16.50
2023-03-06T01:55:01.784Z,16.47
2023-03-06T01:57:35.114Z,16.48
2023-03-06T02:00:08.891Z,16.48
2023-03-06T02:02:37.488Z,16.48
2023-03-06T02:05:05.957Z,16.48
2023-03-06T02:07:34.987Z,16.48
2023-03-06T02:10:02.433Z,16.47
2023-03-06T02:12:30.333Z,16.48
2023-03-06T02:14:58.648Z,16.47
2023-03-06T02:17:27.564Z,16.48
2023-03-06T02:20:13.353Z,16.48
2023-03-06T02:22:49.902Z,16.45
2023-03-06T02:25:32.778Z,16.45
2023-03-06T02:28:01.170Z,16.47
2023-03-06T02:30:29.909Z,16.45
2023-03-06T02:32:58.328Z,16.44
2023-03-06T02:35:31.720Z,16.43
2023-03-06T02:38:04.635Z,16.43
2023-03-06T02:40:32.130Z,16.44
2023-03-06T02:43:00.043Z,16.46
2023-03-06T02:45:33.778Z,16.43
2023-03-06T02:48:01.333Z,16.47
2023-03-06T02:50:29.075Z,16.45
2023-03-06T02:52:56.606Z,16.47
2023-03-06T02:55:23.903Z,16.43
2023-03-06T02:57:51.854Z,16.43
2023-03-06T03:00:19.716Z,16.43
2023-03-06T03:02:48.184Z,16.43
2023-03-06T03:05:15.689Z,16.43
2023-03-06T03:07:43.771Z,16.47
2023-03-06T03:10:12.304Z,16.43
2023-03-06T03:12:40.432Z,16.44
2023-03-06T03:15:08.855Z,16.45
2023-03-06T03:17:40.965Z,16.43
2023-03-06T03:20:12.491Z,16.42
2023-03-06T03:22:40.245Z,16.42
2023-03-06T03:25:08.619Z,16.42
2023-03-06T03:27:36.092Z,16.41
2023-03-06T03:30:04.418Z,16.40
2023-03-06T03:32:31.998Z,16.40
2023-03-06T03:34:59.433Z,16.39
2023-03-06T03:37:26.951Z,16.39
2023-03-06T03:39:54.300Z,16.41
2023-03-06T03:42:21.898Z,16.40
2023-03-06T03:44:49.902Z,16.40
2023-03-06T03:47:17.504Z,16.39
2023-03-06T03:49:44.872Z,16.40
2023-03-06T03:52:12.332Z,16.39
2023-03-06T03:54:39.570Z,16.38
2023-03-06T03:57:07.183Z,16.40
2023-03-06T03:59:34.419Z,16.40
2023-03-06T04:02:04.708Z,16.39
2023-03-06T04:04:32.170Z,16.40
2023-03-06T04:07:00.573Z,16.40
2023-03-06T04:09:27.981Z,16.38
2023-03-06T04:11:55.860Z,16.38
2023-03-06T04:14:23.212Z,16.38
2023-03-06T04:16:50.800Z,16.39
2023-03-06T04:19:18.168Z,16.37
2023-03-06T04:21:45.714Z,16.38
2023-03-06T04:24:13.147Z,16.38
2023-03-06T04:26:40.639Z,16.38
2023-03-06T04:29:08.052Z,16.38
2023-03-06T04:31:35.679Z,16.37
2023-03-06T04:34:02.942Z,16.38
2023-03-06T04:36:32.911Z,16.36
2023-03-06T04:39:01.115Z,16.35
2023-03-06T04:41:28.940Z,16.35
2023-03-06T04:43:56.374Z,16.35
2023-03-06T04:46:23.904Z,16.36
2023-03-06T04:48:51.223Z,16.34
2023-03-06T04:51:18.794Z,16.34
2023-03-06T04:53:46.925Z,16.34
2023-03-06T04:56:14.446Z,16.32
2023-03-06T04:58:43.387Z,16.33
2023-03-06T05:01:12.035Z,16.34
2023-03-06T05:03:39.321Z,16.32
2023-03-06T05:06:07.198Z,16.33
2023-03-06T05:08:34.475Z,16.32
2023-03-06T05:11:02.904Z,16.33
2023-03-06T05:13:30.168Z,16.32
2023-03-06T05:16:02.887Z,16.30
2023-03-06T05:18:30.389Z,16.31
2023-03-06T05:20:59.900Z,16.31
2023-03-06T05:23:28.729Z,16.31
2023-03-06T05:25:56.963Z,16.30
2023-03-06T05:28:25.897Z,16.32
2023-03-06T05:30:53.437Z,16.30
2023-03-06T05:33:20.876Z,16.31
2023-03-06T05:35:49.032Z,16.30
2023-03-06T05:38:17.136Z,16.30
2023-03-06T05:40:45.457Z,16.30
2023-03-06T05:43:13.016Z,16.30
2023-03-06T05:45:40.979Z,16.28
2023-03-06T05:48:13.542Z,16.28
2023-03-06T05:50:41.094Z,16.28
2023-03-06T05:53:08.408Z,16.27
2023-03-06T05:55:36.715Z,16.28
2023-03-06T05:58:04.142Z,16.29
2023-03-06T06:00:31.765Z,16.29
2023-03-06T06:03:01.279Z,16.30
2023-03-06T06:05:29.441Z,16.28
2023-03-06T06:07:56.751Z,16.31
2023-03-06T06:10:24.319Z,16.30
2023-03-06T06:12:51.604Z,16.30
2023-03-06T06:15:19.111Z,16.33
2023-03-06T06:17:46.869Z,16.32
2023-03-06T06:20:14.824Z,16.33
2023-03-06T06:22:42.272Z,16.32
2023-03-06T06:25:10.108Z,16.34
2023-03-06T06:27:37.395Z,16.32
2023-03-06T06:30:06.591Z,16.32
2023-03-06T06:32:34.525Z,16.33
2023-03-06T06:35:02.153Z,16.31
2023-03-06T06:37:29.636Z,16.34
2023-03-06T06:39:57.357Z,16.33
2023-03-06T06:42:39.013Z,16.34
2023-03-06T06:45:11.245Z,16.33
2023-03-06T06:47:41.283Z,16.34
2023-03-06T06:50:12.918Z,16.34
2023-03-06T06:52:40.444Z,16.34
2023-03-06T06:55:08.764Z,16.36
2023-03-06T06:57:36.076Z,16.36
2023-03-06T07:00:05.432Z,16.37
2023-03-06T07:02:32.889Z,16.38
2023-03-06T07:05:04.713Z,16.38
2023-03-06T07:07:37.551Z,16.38
2023-03-06T07:10:07.748Z,16.39
2023-03-06T07:12:35.288Z,16.39
2023-03-06T07:15:04.800Z,16.39
2023-03-06T07:17:32.018Z,16.39
2023-03-06T07:19:59.932Z,16.41
2023-03-06T07:22:28.147Z,16.43
2023-03-06T07:24:56.628Z,16.42
2023-03-06T07:27:26.062Z,16.44
2023-03-06T07:29:53.585Z,16.44
2023-03-06T07:32:21.064Z,16.44
2023-03-06T07:34:48.996Z,16.43
2023-03-06T07:37:16.436Z,16.43
2023-03-06T07:39:44.664Z,16.45
2023-03-06T07:42:13.936Z,16.45
2023-03-06T07:44:41.519Z,16.45
2023-03-06T07:47:08.880Z,16.44
2023-03-06T07:49:37.300Z,16.45
2023-03-06T07:52:04.811Z,16.45
2023-03-06T07:54:32.657Z,16.45
2023-03-06T07:56:59.990Z,16.47
2023-03-06T07:59:28.855Z,16.48
2023-03-06T08:01:56.932Z,16.47
2023-03-06T08:04:24.440Z,16.45
2023-03-06T08:06:53.460Z,16.44
2023-03-06T08:09:20.964Z,16.45
2023-03-06T08:11:49.364Z,16.45
2023-03-06T08:14:16.913Z,16.45
2023-03-06T08:16:44.254Z,16.45
2023-03-06T08:19:11.833Z,16.45
2023-03-06T08:21:39.045Z,16.45
2023-03-06T08:24:07.566Z,16.47
2023-03-06T08:26:35.732Z,16.48
2023-03-06T08:29:03.731Z,16.48
2023-03-06T08:31:36.226Z,16.50
2023-03-06T08:34:12.529Z,16.50
2023-03-06T08:36:40.091Z,16.51
2023-03-06T08:39:08.674Z,16.52
2023-03-06T08:41:37.173Z,16.52
2023-03-06T08:44:05.412Z,16.53
2023-03-06T08:46:33.987Z,16.53
2023-03-06T08:49:01.902Z,16.51
2023-03-06T08:51:29.212Z,16.52
2023-03-06T08:53:57.978Z,16.52
2023-03-06T08:56:33.652Z,16.54
2023-03-06T08:59:03.839Z,16.54
2023-03-06T09:01:34.669Z,16.54
2023-03-06T09:04:06.435Z,16.54
2023-03-06T09:06:37.384Z,16.55
2023-03-06T09:09:05.919Z,16.57
2023-03-06T09:11:33.725Z,16.57
2023-03-06T09:14:01.496Z,16.56
2023-03-06T09:16:28.915Z,16.58
2023-03-06T09:18:57.782Z,16.59
2023-03-06T09:21:27.209Z,16.60
2023-03-06T09:23:55.242Z,16.61
2023-03-06T09:26:27.996Z,16.62
2023-03-06T09:29:00.568Z,16.62
2023-03-06T09:31:28.310Z,16.62
2023-03-06T09:33:56.724Z,16.64
2023-03-06T09:36:24.028Z,16.64
2023-03-06T09:38:51.570Z,16.67
2023-03-06T09:41:33.348Z,16.67
2023-03-06T09:44:08.594Z,16.67
2023-03-06T09:46:45.411Z,16.69
2023-03-06T09:49:45.486Z,16.69
2023-03-06T09:52:40.714Z,16.70
2023-03-06T09:55:13.331Z,16.69
2023-03-06T09:58:11.338Z,16.69
2023-03-06T10:00:44.323Z,16.70
2023-03-06T10:03:31.019Z,16.70
2023-03-06T10:06:11.371Z,16.72
2023-03-06T10:08:49.960Z,16.72
2023-03-06T10:11:24.851Z,16.73
2023-03-06T10:14:12.107Z,16.74
2023-03-06T10:16:40.243Z,16.73
2023-03-06T10:19:14.370Z,16.72
2023-03-06T10:22:06.132Z,16.72
2023-03-06T10:24:46.359Z,16.74
2023-03-06T10:27:45.810Z,16.74
2023-03-06T10:30:33.859Z,16.73
2023-03-06T10:33:17.367Z,16.73
2023-03-06T10:35:48.205Z,16.74
2023-03-06T10:38:24.788Z,16.73
2023-03-06T10:41:01.215Z,16.75
2023-03-06T10:43:28.715Z,16.75
2023-03-06T10:45:56.089Z,16.75
2023-03-06T10:48:26.620Z,16.75
2023-03-06T10:51:22.250Z,16.77
2023-03-06T10:53:57.213Z,16.74
2023-03-06T10:56:37.039Z,16.75
2023-03-06T10:59:07.239Z,16.75
2023-03-06T11:01:36.036Z,16.77
2023-03-06T11:04:22.678Z,16.78
2023-03-06T11:07:19.820Z,16.80
2023-03-06T11:10:15.645Z,16.80
2023-03-06T11:12:43.774Z,16.81
2023-03-06T11:15:23.341Z,16.81
2023-03-06T11:17:57.569Z,16.83
2023-03-06T11:20:55.600Z,16.80
2023-03-06T11:23:37.081Z,16.83
2023-03-06T11:26:04.935Z,16.84
2023-03-06T11:28:40.793Z,16.85
2023-03-06T11:31:14.072Z,16.85
2023-03-06T11:33:50.188Z,16.86
2023-03-06T11:36:43.876Z,16.84
2023-03-06T11:39:37.074Z,16.85
2023-03-06T11:42:43.121Z,16.84
2023-03-06T11:45:37.141Z,16.85
2023-03-06T11:48:38.088Z,16.85
2023-03-06T11:51:11.211Z,16.84
2023-03-06T11:53:40.118Z,16.83
2023-03-06T11:56:19.324Z,16.83
2023-03-06T11:59:30.193Z,16.84
2023-03-06T12:02:11.975Z,16.85
2023-03-06T12:05:07.328Z,16.84
2023-03-06T12:07:34.623Z,16.84
2023-03-06T12:10:20.228Z,16.83
2023-03-06T12:12:57.144Z,16.83
2023-03-06T12:15:50.310Z,16.83
2023-03-06T12:18:29.723Z,16.82
2023-03-06T12:21:07.141Z,16.81
2023-03-06T12:24:12.539Z,16.80
2023-03-06T12:27:01.686Z,16.82
2023-03-06T12:29:53.621Z,16.81
2023-03-06T12:32:59.683Z,16.81
2023-03-06T12:35:42.207Z,16.81
2023-03-06T12:38:22.492Z,16.81
2023-03-06T12:41:22.822Z,16.80
2023-03-06T12:43:58.592Z,16.79
2023-03-06T12:46:27.998Z,16.79
2023-03-06T12:49:05.364Z,16.77
2023-03-06T12:51:34.375Z,16.77
2023-03-06T12:54:03.244Z,16.77
2023-03-06T12:56:32.269Z,16.77
2023-03-06T12:59:03.394Z,16.77
2023-03-06T13:02:13.254Z,16.77
2023-03-06T13:05:06.243Z,16.80
2023-03-06T13:07:49.083Z,16.79
2023-03-06T13:10:33.688Z,16.79
2023-03-06T13:13:26.525Z,16.81
2023-03-06T13:16:18.639Z,16.79
2023-03-06T13:18:51.349Z,16.80
2023-03-06T13:21:44.303Z,16.80
2023-03-06T13:24:23.529Z,16.80
2023-03-06T13:26:58.388Z,16.80
2023-03-06T13:29:37.732Z,16.81
2023-03-06T13:32:17.026Z,16.79
2023-03-06T13:34:49.958Z,16.79
2023-03-06T13:37:17.475Z,16.78
2023-03-06T13:39:59.905Z,16.77
2023-03-06T13:42:30.529Z,16.77
2023-03-06T13:45:08.903Z,16.78
2023-03-06T13:50:44.399Z,16.75
2023-03-06T13:53:40.734Z,16.74
2023-03-06T13:56:25.140Z,16.73
2023-03-06T13:59:29.681Z,16.73
2023-03-06T14:02:22.609Z,16.73
2023-03-06T14:04:57.901Z,16.72
2023-03-06T14:07:30.904Z,16.73
2023-03-06T14:10:01.144Z,16.73
2023-03-06T14:12:34.024Z,16.72
2023-03-06T14:15:15.760Z,16.71
2023-03-06T14:18:01.934Z,16.71
2023-03-06T14:20:43.861Z,16.72
2023-03-06T14:23:23.379Z,16.70
2023-03-06T14:26:00.784Z,16.70
2023-03-06T14:28:30.822Z,16.67
2023-03-06T14:31:00.359Z,16.67
2023-03-06T14:33:50.308Z,16.67
2023-03-06T14:36:20.823Z,16.65
2023-03-06T14:38:58.189Z,16.65
2023-03-06T14:41:34.542Z,16.67
2023-03-06T14:44:23.147Z,16.64
2023-03-06T14:46:51.986Z,16.63
2023-03-06T14:49:21.710Z,16.63
2023-03-06T14:51:51.976Z,16.64
2023-03-06T14:54:23.417Z,16.62
2023-03-06T14:56:53.577Z,16.63
2023-03-06T14:59:26.537Z,16.62
2023-03-06T15:02:01.046Z,16.60
2023-03-06T15:04:44.387Z,16.59
2023-03-06T15:07:17.643Z,16.60
2023-03-06T15:09:49.240Z,16.59
2023-03-06T15:12:20.865Z,16.59
2023-03-06T15:14:59.012Z,16.57
2023-03-06T15:17:30.750Z,16.56
2023-03-06T15:20:00.266Z,16.57
2023-03-06T15:22:43.441Z,16.56
2023-03-06T15:25:27.282Z,16.57
2023-03-06T15:28:00.557Z,16.56
2023-03-06T15:30:34.461Z,16.58
2023-03-06T15:33:22.043Z,16.59
2023-03-06T15:36:00.788Z,16.59
2023-03-06T15:38:42.351Z,16.59
2023-03-06T15:41:32.374Z,16.62
2023-03-06T15:44:01.580Z,16.63
2023-03-06T15:46:29.747Z,16.64
2023-03-06T15:49:01.111Z,16.66
2023-03-06T15:51:29.881Z,16.69
2023-03-06T15:54:09.866Z,16.68
2023-03-06T15:56:41.747Z,16.70
2023-03-06T15:59:21.787Z,16.72
2023-03-06T16:01:50.556Z,16.72
2023-03-06T16:04:19.796Z,16.71
2023-03-06T16:06:47.162Z,16.74
2023-03-06T16:09:14.713Z,16.73
2023-03-06T16:11:44.773Z,16.73
2023-03-06T16:14:21.303Z,16.76
2023-03-06T16:16:49.918Z,16.75
2023-03-06T16:19:28.201Z,16.77
2023-03-06T16:21:57.366Z,16.74
2023-03-06T16:24:26.251Z,16.75
2023-03-06T16:26:54.880Z,16.75
2023-03-06T16:29:25.887Z,16.77
2023-03-06T16:31:55.453Z,16.75
2023-03-06T16:34:23.516Z,16.76
2023-03-06T16:36:51.469Z,16.76
2023-03-06T16:39:21.762Z,16.76
2023-03-06T16:41:50.482Z,16.76
2023-03-06T16:44:18.821Z,16.77
2023-03-06T16:46:48.763Z,16.75
2023-03-06T16:49:23.829Z,16.77
2023-03-06T16:51:51.770Z,16.76
2023-03-06T16:54:20.235Z,16.75
2023-03-06T16:56:47.519Z,16.77
2023-03-06T16:59:15.059Z,16.77
2023-03-06T17:01:43.368Z,16.77
2023-03-06T17:04:11.321Z,16.78
2023-03-06T17:06:39.667Z,16.77
2023-03-06T17:09:07.559Z,16.78
2023-03-06T17:11:38.513Z,16.78
2023-03-06T17:14:06.932Z,16.79
2023-03-06T17:16:36.469Z,16.78
2023-03-06T17:19:05.471Z,16.79
2023-03-06T17:21:35.344Z,16.80
2023-03-06T17:24:03.734Z,16.78
2023-03-06T17:26:32.726Z,16.79
2023-03-06T17:29:00.303Z,16.80
2023-03-06T17:31:28.713Z,16.80
2023-03-06T17:34:00.483Z,16.80
2023-03-06T17:36:29.016Z,16.82
2023-03-06T17:38:58.638Z,16.82
2023-03-06T17:41:26.325Z,16.83
2023-03-06T17:43:58.181Z,16.85
2023-03-06T17:46:25.948Z,16.84
2023-03-06T17:48:54.708Z,16.84
2023-03-06T17:51:22.064Z,16.84
2023-03-06T17:53:49.711Z,16.86
2023-03-06T17:56:17.067Z,16.86
2023-03-06T17:58:44.966Z,16.85
2023-03-06T18:01:20.908Z,16.86
2023-03-06T18:03:50.249Z,16.87
2023-03-06T18:06:18.756Z,16.87
2023-03-06T18:08:46.826Z,16.88
2023-03-06T18:11:14.730Z,16.87
2023-03-06T18:13:44.908Z,16.89
2023-03-06T18:16:14.510Z,16.87
2023-03-06T18:18:42.280Z,16.87
2023-03-06T18:21:12.704Z,16.88
2023-03-06T18:23:41.609Z,16.88
2023-03-06T18:26:18.601Z,16.90
2023-03-06T18:28:48.680Z,16.88
2023-03-06T18:31:17.137Z,16.88
2023-03-06T18:33:47.629Z,16.91
2023-03-06T18:36:15.881Z,16.91
2023-03-06T18:38:45.441Z,16.92
2023-03-06T18:41:13.513Z,16.92
2023-03-06T18:43:42.331Z,16.93
2023-03-06T18:46:10.090Z,16.93
2023-03-06T18:48:37.976Z,16.92
2023-03-06T18:51:10.404Z,16.92
2023-03-06T18:53:39.945Z,16.91
2023-03-06T18:56:10.550Z,16.92
2023-03-06T18:58:37.998Z,16.92
2023-03-06T19:01:07.255Z,16.91
2023-03-06T19:03:35.258Z,16.90
2023-03-06T19:06:09.270Z,16.90
2023-03-06T19:08:38.637Z,16.90
2023-03-06T19:11:08.453Z,16.88
2023-03-06T19:13:36.902Z,16.86
2023-03-06T19:16:05.444Z,16.89
2023-03-06T19:18:33.421Z,16.87
2023-03-06T19:21:11.765Z,16.86
2023-03-06T19:23:39.545Z,16.86
2023-03-06T19:26:07.682Z,16.85
2023-03-06T19:28:37.571Z,16.85
2023-03-06T19:31:13.381Z,16.84
2023-03-06T19:33:42.485Z,16.84
2023-03-06T19:36:12.287Z,16.84
2023-03-06T19:38:40.524Z,16.83
2023-03-06T19:41:13.590Z,16.84
2023-03-06T19:43:42.655Z,16.83
2023-03-06T19:46:13.901Z,16.83
2023-03-06T19:48:42.294Z,16.84
2023-03-06T19:51:10.712Z,16.82
2023-03-06T19:53:39.811Z,16.83
2023-03-06T19:56:08.556Z,16.81
2023-03-06T19:58:36.033Z,16.82
2023-03-06T20:01:09.935Z,16.79
2023-03-06T20:03:37.448Z,16.78
2023-03-06T20:06:09.163Z,16.77
2023-03-06T20:08:36.783Z,16.73
2023-03-06T20:11:04.598Z,16.73
2023-03-06T20:13:31.896Z,16.72
2023-03-06T20:16:02.879Z,16.70
2023-03-06T20:18:30.205Z,16.71
2023-03-06T20:21:02.276Z,16.69
2023-03-06T20:23:30.258Z,16.68
2023-03-06T20:26:09.658Z,16.70
2023-03-06T20:28:39.318Z,16.70
2023-03-06T20:31:11.642Z,16.69
2023-03-06T20:33:39.633Z,16.69
2023-03-06T20:36:16.008Z,16.68
2023-03-06T20:38:44.229Z,16.67
2023-03-06T20:41:20.397Z,16.65
2023-03-06T20:43:48.249Z,16.67
2023-03-06T20:46:16.374Z,16.65
2023-03-06T20:48:44.145Z,16.65
2023-03-06T20:51:14.616Z,16.64
2023-03-06T20:53:41.854Z,16.64
2023-03-06T20:56:13.827Z,16.65
2023-03-06T20:58:41.207Z,16.65
2023-03-06T21:01:08.907Z,16.63
2023-03-06T21:03:36.793Z,16.63
2023-03-06T21:06:05.653Z,16.62
2023-03-06T21:08:32.971Z,16.62
2023-03-06T21:11:00.483Z,16.61
2023-03-06T21:13:28.162Z,16.61
2023-03-06T21:15:55.735Z,16.62
2023-03-06T21:18:23.252Z,16.60
2023-03-06T21:20:50.914Z,16.59
2023-03-06T21:23:18.175Z,16.61
2023-03-06T21:25:50.245Z,16.59
2023-03-06T21:28:18.343Z,16.59
2023-03-06T21:30:46.219Z,16.59
2023-03-06T21:33:16.064Z,16.59
2023-03-06T21:35:45.424Z,16.59
2023-03-06T21:38:14.126Z,16.58
2023-03-06T21:40:42.647Z,16.59
2023-03-06T21:43:10.374Z,16.59
2023-03-06T21:45:38.088Z,16.59
2023-03-06T21:48:05.616Z,16.58
2023-03-06T21:50:33.547Z,16.57
2023-03-06T21:53:00.937Z,16.56
2023-03-06T21:55:28.541Z,16.57
2023-03-06T21:57:56.363Z,16.57
2023-03-06T22:00:25.658Z,16.60
2023-03-06T22:02:53.090Z,16.59
2023-03-06T22:05:20.694Z,16.58
2023-03-06T22:07:49.573Z,16.57
2023-03-06T22:10:17.273Z,16.57
2023-03-06T22:12:45.806Z,16.58
2023-03-06T22:15:13.321Z,16.57
2023-03-06T22:17:41.552Z,16.58
2023-03-06T22:20:09.948Z,16.56
2023-03-06T22:22:37.268Z,16.56
2023-03-06T22:25:05.149Z,16.57
2023-03-06T22:27:32.745Z,16.56
2023-03-06T22:30:00.723Z,16.57
2023-03-06T22:32:28.050Z,16.56
2023-03-06T22:34:55.639Z,16.54
2023-03-06T22:37:22.857Z,16.53
2023-03-06T22:39:50.362Z,16.53
2023-03-06T22:42:17.562Z,16.53
2023-03-06T22:44:45.199Z,16.54
2023-03-06T22:47:12.564Z,16.53
2023-03-06T22:49:40.208Z,16.52
2023-03-06T22:52:07.437Z,16.52
2023-03-06T22:54:34.925Z,16.50
2023-03-06T22:57:02.155Z,16.52
2023-03-06T22:59:29.707Z,16.51
2023-03-06T23:01:58.498Z,16.51
2023-03-06T23:04:26.066Z,16.52
2023-03-06T23:06:53.312Z,16.53
2023-03-06T23:09:22.346Z,16.54
2023-03-06T23:11:50.234Z,16.53
2023-03-06T23:14:19.503Z,16.54
2023-03-06T23:16:46.816Z,16.53
2023-03-06T23:19:14.379Z,16.55
2023-03-06T23:21:41.811Z,16.56
2023-03-06T23:24:09.500Z,16.56
2023-03-06T23:26:37.059Z,16.56
2023-03-06T23:29:04.591Z,16.56
2023-03-06T23:31:32.209Z,16.57
2023-03-06T23:34:02.141Z,16.56
2023-03-06T23:36:30.413Z,16.56
2023-03-06T23:38:58.713Z,16.58
2023-03-06T23:41:26.085Z,16.56
2023-03-06T23:43:55.278Z,16.57
2023-03-06T23:46:22.730Z,16.56
2023-03-06T23:48:50.535Z,16.55
2023-03-06T23:51:21.696Z,16.57
2023-03-06T23:53:55.704Z,16.55
2023-03-06T23:56:24.596Z,16.54
2023-03-06T23:58:52.405Z,16.55
